createdAt,value
2017-08-30T00:01:23.206Z,22.10
2017-08-30T00:03:50.794Z,22.10
2017-08-30T00:06:18.468Z,22.10
2017-08-30T00:08:46.866Z,22.10
2017-08-30T00:11:14.484Z,22.10
2017-08-30T00:13:42.938Z,22.10
2017-08-30T00:16:10.563Z,22.10
2017-08-30T00:18:38.218Z,22.10
2017-08-30T00:21:05.817Z,22.10
2017-08-30T00:23:33.443Z,22.10
2017-08-30T00:26:13.698Z,22.10
2017-08-30T00:28:41.289Z,22.10
2017-08-30T00:31:08.922Z,22.10
2017-08-30T00:33:37.298Z,22.10
2017-08-30T00:36:05.654Z,22.10
2017-08-30T00:38:33.957Z,22.10
2017-08-30T00:41:01.546Z,22.10
2017-08-30T00:43:30.002Z,22.10
2017-08-30T00:45:58.411Z,22.10
2017-08-30T00:48:26.046Z,22.10
2017-08-30T00:50:54.466Z,22.10
2017-08-30T00:53:22.071Z,22.10
2017-08-30T00:55:50.671Z,22.10
2017-08-30T00:58:18.381Z,22.10
2017-08-30T01:00:46.728Z,22.10
2017-08-30T01:03:14.381Z,22.10
2017-08-30T01:05:42.763Z,22.10
2017-08-30T01:08:10.351Z,22.10
2017-08-30T01:10:37.983Z,22.10
2017-08-30T01:13:06.378Z,22.10
2017-08-30T01:15:34.015Z,22.10
2017-08-30T01:18:01.607Z,22.10
2017-08-30T01:20:29.208Z,22.10
2017-08-30T01:22:56.805Z,22.10
2017-08-30T01:25:25.234Z,22.10
2017-08-30T01:27:53.650Z,22.10
2017-08-30T01:30:22.154Z,22.10
2017-08-30T01:32:49.823Z,22.10
2017-08-30T01:35:18.401Z,22.10
2017-08-30T01:37:46.779Z,22.10
2017-08-30T01:40:14.369Z,22.10
2017-08-30T01:42:41.966Z,22.10
2017-08-30T01:45:10.510Z,22.10
2017-08-30T01:47:39.074Z,22.10
2017-08-30T01:50:07.482Z,22.10
2017-08-30T01:52:35.078Z,22.10
2017-08-30T01:55:02.933Z,22.10
2017-08-30T01:57:30.523Z,22.10
2017-08-30T01:59:58.114Z,22.10
2017-08-30T02:02:25.762Z,22.10
2017-08-30T02:04:53.376Z,22.10
2017-08-30T02:07:21.003Z,22.10
2017-08-30T02:09:48.697Z,22.10
2017-08-30T02:12:16.419Z,22.10
2017-08-30T02:14:44.095Z,22.10
2017-08-30T02:17:11.731Z,22.10
2017-08-30T02:19:39.328Z,22.10
2017-08-30T02:22:07.011Z,22.10
2017-08-30T02:24:34.635Z,22.10
2017-08-30T02:27:02.294Z,22.10
2017-08-30T02:29:29.926Z,22.10
2017-08-30T02:31:57.623Z,22.10
2017-08-30T02:34:25.245Z,22.10
2017-08-30T02:36:52.833Z,22.10
2017-08-30T02:39:20.478Z,22.10
2017-08-30T02:41:48.075Z,22.00
2017-08-30T02:44:15.670Z,22.00
2017-08-30T02:46:43.296Z,22.00
2017-08-30T02:49:10.946Z,22.10
2017-08-30T02:51:38.616Z,22.00
2017-08-30T02:54:06.202Z,22.00
2017-08-30T02:56:33.847Z,22.00
2017-08-30T02:59:01.500Z,22.00
2017-08-30T03:01:29.143Z,22.00
2017-08-30T03:03:56.741Z,22.00
2017-08-30T03:06:24.389Z,22.00
2017-08-30T03:08:52.748Z,22.00
2017-08-30T03:11:20.430Z,22.00
2017-08-30T03:13:48.652Z,22.00
2017-08-30T03:16:16.370Z,22.00
2017-08-30T03:18:44.031Z,22.00
2017-08-30T03:21:11.704Z,22.00
2017-08-30T03:23:39.362Z,22.00
2017-08-30T03:26:07.739Z,22.00
2017-08-30T03:28:35.408Z,22.00
2017-08-30T03:31:03.035Z,22.00
2017-08-30T03:33:30.650Z,22.00
2017-08-30T03:35:58.298Z,22.00
2017-08-30T03:38:25.960Z,22.00
2017-08-30T03:40:53.623Z,22.00
2017-08-30T03:43:21.274Z,22.00
2017-08-30T03:45:49.771Z,22.00
2017-08-30T03:48:17.481Z,22.00
2017-08-30T03:50:45.191Z,22.00
2017-08-30T03:53:12.850Z,22.00
2017-08-30T03:55:40.522Z,22.00
2017-08-30T03:58:08.878Z,22.00
2017-08-30T04:00:36.554Z,22.00
2017-08-30T04:03:04.182Z,22.00
2017-08-30T04:05:31.886Z,22.00
2017-08-30T04:07:59.470Z,22.00
2017-08-30T04:10:27.206Z,22.00
2017-08-30T04:12:54.878Z,22.00
2017-08-30T04:15:22.713Z,22.00
2017-08-30T04:17:50.414Z,22.00
2017-08-30T04:20:18.043Z,22.00
2017-08-30T04:22:45.650Z,22.00
2017-08-30T04:25:13.245Z,22.00
2017-08-30T04:27:40.834Z,22.00
2017-08-30T04:30:08.429Z,22.00
2017-08-30T04:32:36.074Z,22.00
2017-08-30T04:35:04.436Z,22.00
2017-08-30T04:37:32.120Z,21.90
2017-08-30T04:39:59.824Z,22.00
2017-08-30T04:42:27.417Z,22.00
2017-08-30T04:44:55.012Z,22.00
2017-08-30T04:47:22.610Z,22.00
2017-08-30T04:49:50.254Z,22.00
2017-08-30T04:52:17.900Z,22.00
2017-08-30T04:54:45.564Z,22.00
2017-08-30T04:57:13.270Z,22.00
2017-08-30T04:59:40.854Z,22.00
2017-08-30T05:02:08.450Z,22.00
2017-08-30T05:04:36.050Z,22.00
2017-08-30T05:07:03.647Z,22.00
2017-08-30T05:09:31.384Z,22.00
2017-08-30T05:11:59.014Z,22.00
2017-08-30T05:14:26.706Z,22.00
2017-08-30T05:16:54.333Z,22.00
2017-08-30T05:19:22.000Z,22.00
2017-08-30T05:21:50.106Z,22.00
2017-08-30T05:24:17.718Z,22.00
2017-08-30T05:26:45.384Z,22.00
2017-08-30T05:29:12.975Z,22.00
2017-08-30T05:31:40.653Z,22.00
2017-08-30T05:34:08.251Z,21.90
2017-08-30T05:36:35.872Z,21.90
2017-08-30T05:39:03.477Z,21.80
2017-08-30T05:41:31.070Z,21.70
2017-08-30T05:43:58.662Z,21.70
2017-08-30T05:46:26.252Z,21.70
2017-08-30T05:48:53.943Z,21.70
2017-08-30T05:51:21.610Z,21.70
2017-08-30T05:53:50.021Z,21.60
2017-08-30T05:56:17.619Z,21.60
2017-08-30T05:58:45.353Z,21.70
2017-08-30T06:01:12.951Z,21.60
2017-08-30T06:03:40.639Z,21.60
2017-08-30T06:06:08.235Z,21.60
2017-08-30T06:08:35.879Z,21.60
2017-08-30T06:11:03.525Z,21.60
2017-08-30T06:13:31.185Z,21.60
2017-08-30T06:15:59.546Z,21.60
2017-08-30T06:18:27.230Z,21.60
2017-08-30T06:20:54.936Z,21.60
2017-08-30T06:23:22.660Z,21.50
2017-08-30T06:25:50.319Z,21.50
2017-08-30T06:28:17.923Z,21.50
2017-08-30T06:30:45.586Z,21.50
2017-08-30T06:33:13.185Z,21.50
2017-08-30T06:35:42.602Z,21.50
2017-08-30T06:38:10.274Z,21.50
2017-08-30T06:40:37.913Z,21.50
2017-08-30T06:43:05.612Z,21.50
2017-08-30T06:45:33.266Z,21.50
2017-08-30T06:48:00.911Z,21.50
2017-08-30T06:50:28.586Z,21.50
2017-08-30T06:52:56.178Z,21.50
2017-08-30T06:55:23.775Z,21.50
2017-08-30T06:57:51.471Z,21.60
2017-08-30T07:00:19.856Z,21.60
2017-08-30T07:02:48.218Z,21.60
2017-08-30T07:05:15.895Z,21.60
2017-08-30T07:07:44.254Z,21.60
2017-08-30T07:10:11.859Z,21.60
2017-08-30T07:12:39.452Z,21.60
2017-08-30T07:15:07.106Z,21.70
2017-08-30T07:17:34.706Z,21.70
2017-08-30T07:20:03.251Z,21.70
2017-08-30T07:22:30.842Z,21.70
2017-08-30T07:24:58.442Z,21.70
2017-08-30T07:27:26.093Z,21.70
2017-08-30T07:29:53.799Z,21.70
2017-08-30T07:32:21.438Z,21.80
2017-08-30T07:34:49.079Z,21.80
2017-08-30T07:37:16.710Z,21.80
2017-08-30T07:39:44.308Z,21.80
2017-08-30T07:42:11.909Z,21.80
2017-08-30T07:44:39.498Z,21.80
2017-08-30T07:47:07.192Z,21.80
2017-08-30T07:49:34.866Z,21.90
2017-08-30T07:52:02.533Z,21.90
2017-08-30T07:54:30.123Z,21.90
2017-08-30T07:56:57.760Z,21.90
2017-08-30T07:59:25.350Z,21.90
2017-08-30T08:01:53.011Z,22.00
2017-08-30T08:04:20.654Z,22.00
2017-08-30T08:06:48.299Z,22.00
2017-08-30T08:09:16.920Z,22.00
2017-08-30T08:11:44.549Z,22.00
2017-08-30T08:14:12.204Z,22.00
2017-08-30T08:16:39.907Z,22.00
2017-08-30T08:19:07.503Z,22.10
2017-08-30T08:21:35.098Z,22.10
2017-08-30T08:24:02.693Z,22.10
2017-08-30T08:26:30.414Z,22.10
2017-08-30T08:28:58.079Z,22.10
2017-08-30T08:31:25.686Z,22.10
2017-08-30T08:33:53.324Z,22.10
2017-08-30T08:36:20.962Z,22.10
2017-08-30T08:38:48.634Z,22.10
2017-08-30T08:41:16.254Z,22.10
2017-08-30T08:43:43.847Z,22.20
2017-08-30T08:46:11.450Z,22.20
2017-08-30T08:48:39.052Z,22.20
2017-08-30T08:51:06.676Z,22.20
2017-08-30T08:53:34.270Z,22.20
2017-08-30T08:56:01.873Z,22.20
2017-08-30T08:58:29.519Z,22.20
2017-08-30T09:00:57.110Z,22.20
2017-08-30T09:03:24.703Z,22.30
2017-08-30T09:05:52.336Z,22.20
2017-08-30T09:08:19.934Z,22.30
2017-08-30T09:10:47.631Z,22.30
2017-08-30T09:13:15.295Z,22.30
2017-08-30T09:15:42.954Z,22.30
2017-08-30T09:18:16.240Z,22.30
2017-08-30T09:20:46.462Z,22.30
2017-08-30T09:23:14.082Z,22.30
2017-08-30T09:25:41.708Z,22.30
2017-08-30T09:28:09.358Z,22.30
2017-08-30T09:30:37.027Z,22.30
2017-08-30T09:33:04.730Z,22.30
2017-08-30T09:35:32.342Z,22.30
2017-08-30T09:38:00.005Z,22.30
2017-08-30T09:40:27.673Z,22.30
2017-08-30T09:42:55.306Z,22.40
2017-08-30T09:45:22.901Z,22.40
2017-08-30T09:47:51.313Z,22.30
2017-08-30T09:50:18.922Z,22.30
2017-08-30T09:52:46.531Z,22.30
2017-08-30T09:55:14.172Z,22.40
2017-08-30T09:57:41.871Z,22.30
2017-08-30T10:00:09.503Z,22.40
2017-08-30T10:02:37.103Z,22.40
2017-08-30T10:05:04.718Z,22.40
2017-08-30T10:07:32.420Z,22.40
2017-08-30T10:10:00.012Z,22.40
2017-08-30T10:12:27.641Z,22.40
2017-08-30T10:14:55.232Z,22.40
2017-08-30T10:17:22.871Z,22.40
2017-08-30T10:19:50.487Z,22.40
2017-08-30T10:22:18.296Z,22.40
2017-08-30T10:24:45.888Z,22.40
2017-08-30T10:27:13.582Z,22.40
2017-08-30T10:29:41.284Z,22.40
2017-08-30T10:32:08.885Z,22.40
2017-08-30T10:34:36.480Z,22.40
2017-08-30T10:37:04.139Z,22.40
2017-08-30T10:39:31.810Z,22.40
2017-08-30T10:41:59.406Z,22.50
2017-08-30T10:44:27.116Z,22.50
2017-08-30T10:46:54.821Z,22.50
2017-08-30T10:49:22.416Z,22.50
2017-08-30T10:51:50.118Z,22.50
2017-08-30T10:54:17.810Z,22.50
2017-08-30T10:56:45.415Z,22.50
2017-08-30T10:59:13.047Z,22.50
2017-08-30T11:01:40.639Z,22.50
2017-08-30T11:04:08.226Z,22.50
2017-08-30T11:06:35.870Z,22.50
2017-08-30T11:09:03.539Z,22.50
2017-08-30T11:11:31.178Z,22.50
2017-08-30T11:13:58.780Z,22.60
2017-08-30T11:16:26.371Z,22.60
2017-08-30T11:18:54.042Z,22.60
2017-08-30T11:21:21.680Z,22.60
2017-08-30T11:23:49.419Z,22.60
2017-08-30T11:26:17.803Z,22.60
2017-08-30T11:28:45.445Z,22.60
2017-08-30T11:31:13.836Z,22.70
2017-08-30T11:33:42.327Z,22.70
2017-08-30T11:36:09.983Z,22.70
2017-08-30T11:38:37.643Z,22.70
2017-08-30T11:41:05.311Z,22.70
2017-08-30T11:43:32.919Z,22.70
2017-08-30T11:46:00.537Z,22.70
2017-08-30T11:48:28.190Z,22.70
2017-08-30T11:50:55.797Z,22.80
2017-08-30T11:53:23.399Z,22.80
2017-08-30T11:55:50.998Z,22.80
2017-08-30T11:58:18.596Z,22.90
2017-08-30T12:00:46.223Z,22.90
2017-08-30T12:03:13.864Z,22.90
2017-08-30T12:05:41.571Z,22.90
2017-08-30T12:08:09.166Z,22.90
2017-08-30T12:10:36.758Z,22.90
2017-08-30T12:13:04.358Z,23.00
2017-08-30T12:15:31.974Z,23.00
2017-08-30T12:17:59.606Z,23.00
2017-08-30T12:20:27.299Z,23.00
2017-08-30T12:22:54.927Z,23.00
2017-08-30T12:25:22.531Z,23.00
2017-08-30T12:27:50.883Z,23.10
2017-08-30T12:30:18.525Z,23.10
2017-08-30T12:32:46.118Z,23.10
2017-08-30T12:35:13.934Z,23.10
2017-08-30T12:37:47.154Z,23.10
2017-08-30T12:40:14.745Z,23.10
2017-08-30T12:42:42.352Z,23.20
2017-08-30T12:45:09.967Z,23.20
2017-08-30T12:47:37.640Z,23.20
2017-08-30T12:50:05.325Z,23.20
2017-08-30T12:52:32.933Z,23.20
2017-08-30T12:55:00.536Z,23.20
2017-08-30T12:57:28.135Z,23.20
2017-08-30T12:59:55.778Z,23.20
2017-08-30T13:02:23.413Z,23.20
2017-08-30T13:04:51.043Z,23.20
2017-08-30T13:07:18.634Z,23.20
2017-08-30T13:09:46.300Z,23.20
2017-08-30T13:12:13.963Z,23.20
2017-08-30T13:14:41.560Z,23.30
2017-08-30T13:17:09.192Z,23.30
2017-08-30T13:19:36.816Z,23.20
2017-08-30T13:22:04.510Z,23.20
2017-08-30T13:24:32.103Z,23.20
2017-08-30T13:26:59.871Z,23.20
2017-08-30T13:29:27.460Z,23.20
2017-08-30T13:31:55.054Z,23.20
2017-08-30T13:34:22.711Z,23.10
2017-08-30T13:36:50.306Z,23.10
2017-08-30T13:39:17.979Z,23.10
2017-08-30T13:41:45.598Z,23.10
2017-08-30T13:44:13.181Z,23.10
2017-08-30T13:46:40.810Z,23.10
2017-08-30T13:49:08.424Z,23.10
2017-08-30T13:51:36.020Z,23.10
2017-08-30T13:54:03.623Z,23.10
2017-08-30T13:56:31.254Z,23.10
2017-08-30T13:58:58.934Z,23.10
2017-08-30T14:01:27.295Z,23.10
2017-08-30T14:03:55.018Z,23.00
2017-08-30T14:06:22.635Z,23.00
2017-08-30T14:08:51.003Z,23.00
2017-08-30T14:11:18.631Z,23.00
2017-08-30T14:13:46.227Z,23.00
2017-08-30T14:16:13.904Z,23.00
2017-08-30T14:18:41.507Z,23.00
2017-08-30T14:21:09.109Z,23.00
2017-08-30T14:23:36.700Z,23.00
2017-08-30T14:26:04.293Z,23.00
2017-08-30T14:28:31.941Z,23.00
2017-08-30T14:30:59.535Z,23.00
2017-08-30T14:33:27.131Z,23.00
2017-08-30T14:35:54.719Z,23.00
2017-08-30T14:38:22.318Z,23.00
2017-08-30T14:40:50.064Z,23.00
2017-08-30T14:43:17.987Z,23.00
2017-08-30T14:45:45.662Z,23.00
2017-08-30T14:48:14.014Z,23.00
2017-08-30T14:50:41.694Z,23.00
2017-08-30T14:53:09.310Z,23.00
2017-08-30T14:55:37.022Z,23.00
2017-08-30T14:58:04.617Z,23.00
2017-08-30T15:00:32.242Z,23.00
2017-08-30T15:02:59.907Z,23.00
2017-08-30T15:05:27.531Z,23.00
2017-08-30T15:07:55.230Z,23.00
2017-08-30T15:10:22.859Z,23.00
2017-08-30T15:12:50.453Z,23.00
2017-08-30T15:15:18.939Z,23.00
2017-08-30T15:17:46.602Z,23.00
2017-08-30T15:20:14.259Z,23.00
2017-08-30T15:22:41.999Z,23.00
2017-08-30T15:25:09.633Z,23.00
2017-08-30T15:27:37.269Z,22.90
2017-08-30T15:30:05.172Z,22.90
2017-08-30T15:32:32.794Z,22.90
2017-08-30T15:35:00.446Z,22.90
2017-08-30T15:37:28.108Z,22.90
2017-08-30T15:39:55.703Z,23.00
2017-08-30T15:42:23.338Z,22.90
2017-08-30T15:44:51.728Z,23.00
2017-08-30T15:47:19.474Z,23.00
2017-08-30T15:49:47.163Z,23.00
2017-08-30T15:52:14.742Z,22.90
2017-08-30T15:54:42.478Z,22.90
2017-08-30T15:57:10.140Z,22.90
2017-08-30T15:59:37.774Z,22.90
2017-08-30T16:02:05.367Z,22.90
2017-08-30T16:04:33.018Z,22.90
2017-08-30T16:07:00.822Z,22.90
2017-08-30T16:09:28.464Z,22.90
2017-08-30T16:11:56.122Z,22.90
2017-08-30T16:14:23.810Z,22.90
2017-08-30T16:16:51.435Z,22.90
2017-08-30T16:19:19.035Z,22.90
2017-08-30T16:21:46.762Z,22.90
2017-08-30T16:24:14.416Z,22.90
2017-08-30T16:26:42.104Z,22.90
2017-08-30T16:29:09.743Z,22.80
2017-08-30T16:31:37.380Z,22.80
2017-08-30T16:34:04.989Z,22.80
2017-08-30T16:36:32.579Z,22.80
2017-08-30T16:39:00.199Z,22.90
2017-08-30T16:41:28.592Z,23.10
2017-08-30T16:43:56.237Z,23.10
2017-08-30T16:46:23.883Z,23.10
2017-08-30T16:48:51.603Z,23.20
2017-08-30T16:51:19.230Z,23.20
2017-08-30T16:53:47.627Z,23.20
2017-08-30T16:56:15.276Z,23.20
2017-08-30T17:01:16.925Z,23.20
2017-08-30T17:03:44.610Z,23.20
2017-08-30T17:06:12.224Z,23.20
2017-08-30T17:08:39.828Z,23.20
2017-08-30T17:11:08.220Z,23.10
2017-08-30T17:13:35.885Z,23.10
2017-08-30T17:16:03.483Z,23.20
2017-08-30T17:18:31.076Z,23.20
2017-08-30T17:20:58.672Z,23.10
2017-08-30T17:23:26.363Z,23.10
2017-08-30T17:25:54.026Z,23.10
2017-08-30T17:28:21.615Z,23.10
2017-08-30T17:30:49.214Z,23.10
2017-08-30T17:33:16.845Z,23.10
2017-08-30T17:35:44.535Z,23.10
2017-08-30T17:38:12.236Z,23.10
2017-08-30T17:40:39.882Z,23.10
2017-08-30T17:43:07.531Z,23.10
2017-08-30T17:45:35.182Z,23.10
2017-08-30T17:48:02.774Z,23.10
2017-08-30T17:50:30.479Z,23.10
2017-08-30T17:52:58.551Z,23.10
2017-08-30T17:55:26.283Z,23.10
2017-08-30T17:57:54.081Z,23.10
2017-08-30T18:00:21.832Z,23.10
2017-08-30T18:02:49.443Z,23.10
2017-08-30T18:05:17.048Z,23.00
2017-08-30T18:07:44.674Z,23.00
2017-08-30T18:10:13.053Z,23.00
2017-08-30T18:12:40.851Z,23.00
2017-08-30T18:15:08.490Z,23.00
2017-08-30T18:17:36.122Z,23.00
2017-08-30T18:20:03.799Z,23.00
2017-08-30T18:22:32.188Z,23.00
2017-08-30T18:24:59.886Z,23.00
2017-08-30T18:27:27.519Z,23.00
2017-08-30T18:29:55.152Z,23.00
2017-08-30T18:32:23.567Z,23.00
2017-08-30T18:34:51.255Z,23.00
2017-08-30T18:37:18.914Z,23.00
2017-08-30T18:39:46.678Z,23.00
2017-08-30T18:42:15.595Z,22.90
2017-08-30T18:44:43.338Z,22.90
2017-08-30T18:47:11.235Z,22.90
2017-08-30T18:49:44.074Z,22.90
2017-08-30T18:52:11.895Z,22.90
2017-08-30T18:54:39.518Z,22.90
2017-08-30T18:57:07.118Z,22.90
2017-08-30T18:59:34.727Z,22.90
2017-08-30T19:02:02.552Z,22.90
2017-08-30T19:04:30.230Z,22.90
2017-08-30T19:06:57.829Z,22.90
2017-08-30T19:09:25.431Z,22.90
2017-08-30T19:11:53.129Z,22.80
2017-08-30T19:14:21.025Z,22.80
2017-08-30T19:16:48.635Z,22.80
2017-08-30T19:19:16.883Z,22.80
2017-08-30T19:21:44.507Z,22.80
2017-08-30T19:24:13.722Z,22.80
2017-08-30T19:26:41.331Z,22.80
2017-08-30T19:29:09.153Z,22.80
2017-08-30T19:31:36.797Z,22.80
2017-08-30T19:34:04.442Z,22.70
2017-08-30T19:36:32.782Z,22.70
2017-08-30T19:39:00.486Z,22.80
2017-08-30T19:41:28.945Z,22.80
2017-08-30T19:43:56.660Z,22.80
2017-08-30T19:46:24.290Z,22.80
2017-08-30T19:48:51.899Z,22.80
2017-08-30T19:51:19.657Z,22.80
2017-08-30T19:53:47.256Z,22.80
2017-08-30T19:56:14.889Z,22.80
2017-08-30T19:58:42.543Z,22.80
2017-08-30T20:01:10.407Z,22.80
2017-08-30T20:03:38.036Z,22.80
2017-08-30T20:06:05.732Z,22.80
2017-08-30T20:08:33.415Z,22.80
2017-08-30T20:11:01.019Z,22.80
2017-08-30T20:13:28.614Z,22.80
2017-08-30T20:15:56.250Z,22.80
2017-08-30T20:18:23.911Z,22.80
2017-08-30T20:20:51.563Z,22.80
2017-08-30T20:23:19.279Z,22.80
2017-08-30T20:25:48.939Z,22.80
2017-08-30T20:28:16.536Z,22.80
2017-08-30T20:30:44.165Z,22.80
2017-08-30T20:33:12.647Z,22.80
2017-08-30T20:35:40.247Z,22.80
2017-08-30T20:38:09.039Z,22.80
2017-08-30T20:40:38.392Z,22.80
2017-08-30T20:43:06.153Z,22.70
2017-08-30T20:45:33.767Z,22.80
2017-08-30T20:48:01.509Z,22.80
2017-08-30T20:50:29.159Z,22.80
2017-08-30T20:52:56.857Z,22.70
2017-08-30T20:55:24.487Z,22.70
2017-08-30T20:57:52.578Z,22.70
2017-08-30T21:00:20.310Z,22.80
2017-08-30T21:02:47.982Z,22.70
2017-08-30T21:05:16.503Z,22.70
2017-08-30T21:07:44.124Z,22.70
2017-08-30T21:10:11.726Z,22.70
2017-08-30T21:12:39.319Z,22.70
2017-08-30T21:15:06.957Z,22.70
2017-08-30T21:17:34.670Z,22.70
2017-08-30T21:20:02.263Z,22.80
2017-08-30T21:22:29.900Z,22.70
2017-08-30T21:24:57.558Z,22.80
2017-08-30T21:27:25.226Z,22.80
2017-08-30T21:29:52.827Z,22.80
2017-08-30T21:32:20.466Z,22.70
2017-08-30T21:34:48.926Z,22.80
2017-08-30T21:37:16.587Z,22.80
2017-08-30T21:39:44.431Z,22.80
2017-08-30T21:42:12.171Z,22.80
2017-08-30T21:44:39.883Z,22.80
2017-08-30T21:47:09.707Z,22.70
2017-08-30T21:49:37.357Z,22.70
2017-08-30T21:52:05.023Z,22.80
2017-08-30T21:54:32.937Z,22.70
2017-08-30T21:57:00.565Z,22.80
2017-08-30T21:59:28.171Z,22.80
2017-08-30T22:01:55.779Z,22.80
2017-08-30T22:04:23.486Z,22.80
2017-08-30T22:06:51.155Z,22.80
2017-08-30T22:09:18.901Z,22.80
2017-08-30T22:11:46.550Z,22.80
2017-08-30T22:14:14.159Z,22.80
2017-08-30T22:16:42.062Z,22.80
2017-08-30T22:19:09.731Z,22.80
2017-08-30T22:21:37.334Z,22.80
2017-08-30T22:24:04.922Z,22.80
2017-08-30T22:26:33.095Z,22.80
2017-08-30T22:29:00.799Z,22.80
